sensor_id;sensor_type;location;lat;lon;timestamp;temperature;humidity
2897;DHT22;1458;49.728;9.228;2023-04-09T00:01:10;3.60;99.90
2897;DHT22;1458;49.728;9.228;2023-04-09T00:03:38;3.60;99.90
2897;DHT22;1458;49.728;9.228;2023-04-09T00:06:05;3.60;99.90
2897;DHT22;1458;49.728;9.228;2023-04-09T00:08:33;3.50;99.90
2897;DHT22;1458;49.728;9.228;2023-04-09T00:11:00;3.50;99.90
2897;DHT22;1458;49.728;9.228;2023-04-09T00:13:28;3.50;99.90
2897;DHT22;1458;49.728;9.228;2023-04-09T00:15:55;3.50;99.90
2897;DHT22;1458;49.728;9.228;2023-04-09T00:18:24;3.40;99.90
2897;DHT22;1458;49.728;9.228;2023-04-09T00:20:52;3.50;99.90
2897;DHT22;1458;49.728;9.228;2023-04-09T00:23:19;3.50;99.90
2897;DHT22;1458;49.728;9.228;2023-04-09T00:25:46;3.50;99.90
2897;DHT22;1458;49.728;9.228;2023-04-09T00:28:14;3.40;99.90
2897;DHT22;1458;49.728;9.228;2023-04-09T00:30:42;3.30;99.90
2897;DHT22;1458;49.728;9.228;2023-04-09T00:33:10;3.30;99.90
2897;DHT22;1458;49.728;9.228;2023-04-09T00:35:39;3.20;99.90
2897;DHT22;1458;49.728;9.228;2023-04-09T00:38:06;3.30;99.90
2897;DHT22;1458;49.728;9.228;2023-04-09T00:40:33;3.20;99.90
2897;DHT22;1458;49.728;9.228;2023-04-09T00:43:01;3.20;99.90
2897;DHT22;1458;49.728;9.228;2023-04-09T00:45:29;3.20;99.90
2897;DHT22;1458;49.728;9.228;2023-04-09T00:47:56;3.20;99.90
2897;DHT22;1458;49.728;9.228;2023-04-09T00:50:26;3.10;99.90
2897;DHT22;1458;49.728;9.228;2023-04-09T00:52:55;2.90;99.90
2897;DHT22;1458;49.728;9.228;2023-04-09T00:55:24;2.90;99.90
2897;DHT22;1458;49.728;9.228;2023-04-09T00:57:52;2.90;99.90
2897;DHT22;1458;49.728;9.228;2023-04-09T01:00:19;2.90;99.90
2897;DHT22;1458;49.728;9.228;2023-04-09T01:02:47;2.90;99.90
2897;DHT22;1458;49.728;9.228;2023-04-09T01:05:16;2.90;99.90
2897;DHT22;1458;49.728;9.228;2023-04-09T01:08:00;2.80;99.90
2897;DHT22;1458;49.728;9.228;2023-04-09T01:10:36;2.90;99.90
2897;DHT22;1458;49.728;9.228;2023-04-09T01:13:11;2.80;99.90
2897;DHT22;1458;49.728;9.228;2023-04-09T01:15:47;2.70;99.90
2897;DHT22;1458;49.728;9.228;2023-04-09T01:18:23;2.60;99.90
2897;DHT22;1458;49.728;9.228;2023-04-09T01:20:58;2.50;99.90
2897;DHT22;1458;49.728;9.228;2023-04-09T01:23:36;2.50;99.90
2897;DHT22;1458;49.728;9.228;2023-04-09T01:26:21;2.50;99.90
2897;DHT22;1458;49.728;9.228;2023-04-09T01:28:59;2.40;99.90
2897;DHT22;1458;49.728;9.228;2023-04-09T01:31:30;2.30;99.90
2897;DHT22;1458;49.728;9.228;2023-04-09T01:33:59;2.40;99.90
2897;DHT22;1458;49.728;9.228;2023-04-09T01:36:27;2.50;99.90
2897;DHT22;1458;49.728;9.228;2023-04-09T01:38:59;2.70;99.90
2897;DHT22;1458;49.728;9.228;2023-04-09T01:41:30;2.60;99.90
2897;DHT22;1458;49.728;9.228;2023-04-09T01:44:01;2.60;99.90
2897;DHT22;1458;49.728;9.228;2023-04-09T01:46:30;2.60;99.90
2897;DHT22;1458;49.728;9.228;2023-04-09T01:48:58;2.70;99.90
2897;DHT22;1458;49.728;9.228;2023-04-09T01:51:26;2.70;99.90
2897;DHT22;1458;49.728;9.228;2023-04-09T01:53:55;2.80;99.90
2897;DHT22;1458;49.728;9.228;2023-04-09T01:56:22;2.80;99.90
2897;DHT22;1458;49.728;9.228;2023-04-09T01:58:50;2.60;99.90
2897;DHT22;1458;49.728;9.228;2023-04-09T02:01:23;2.50;99.90
2897;DHT22;1458;49.728;9.228;2023-04-09T02:03:55;2.50;99.90
2897;DHT22;1458;49.728;9.228;2023-04-09T02:06:33;2.40;99.90
2897;DHT22;1458;49.728;9.228;2023-04-09T02:09:06;2.40;99.90
2897;DHT22;1458;49.728;9.228;2023-04-09T02:11:37;2.30;99.90
2897;DHT22;1458;49.728;9.228;2023-04-09T02:14:08;2.20;99.90
2897;DHT22;1458;49.728;9.228;2023-04-09T02:16:39;2.30;99.90
2897;DHT22;1458;49.728;9.228;2023-04-09T02:19:07;2.20;99.90
2897;DHT22;1458;49.728;9.228;2023-04-09T02:21:34;2.20;99.90
2897;DHT22;1458;49.728;9.228;2023-04-09T02:24:02;2.10;99.90
2897;DHT22;1458;49.728;9.228;2023-04-09T02:26:29;2.10;99.90
2897;DHT22;1458;49.728;9.228;2023-04-09T02:28:57;2.20;99.90
2897;DHT22;1458;49.728;9.228;2023-04-09T02:31:25;2.20;99.90
2897;DHT22;1458;49.728;9.228;2023-04-09T02:33:54;2.20;99.90
2897;DHT22;1458;49.728;9.228;2023-04-09T02:36:21;2.20;99.90
2897;DHT22;1458;49.728;9.228;2023-04-09T02:38:49;2.20;99.90
2897;DHT22;1458;49.728;9.228;2023-04-09T02:41:18;2.20;99.90
2897;DHT22;1458;49.728;9.228;2023-04-09T02:43:45;2.30;99.90
2897;DHT22;1458;49.728;9.228;2023-04-09T02:46:13;2.20;99.90
2897;DHT22;1458;49.728;9.228;2023-04-09T02:48:40;2.20;99.90
2897;DHT22;1458;49.728;9.228;2023-04-09T02:51:09;2.20;99.90
2897;DHT22;1458;49.728;9.228;2023-04-09T02:53:38;2.30;99.90
2897;DHT22;1458;49.728;9.228;2023-04-09T02:56:06;2.40;99.90
2897;DHT22;1458;49.728;9.228;2023-04-09T02:58:33;2.40;99.90
2897;DHT22;1458;49.728;9.228;2023-04-09T03:01:01;2.30;99.90
2897;DHT22;1458;49.728;9.228;2023-04-09T03:03:28;2.40;99.90
2897;DHT22;1458;49.728;9.228;2023-04-09T03:05:56;2.30;99.90
2897;DHT22;1458;49.728;9.228;2023-04-09T03:08:25;2.30;99.90
2897;DHT22;1458;49.728;9.228;2023-04-09T03:10:53;2.20;99.90
2897;DHT22;1458;49.728;9.228;2023-04-09T03:13:20;2.20;99.90
2897;DHT22;1458;49.728;9.228;2023-04-09T03:15:50;2.30;99.90
2897;DHT22;1458;49.728;9.228;2023-04-09T03:18:19;2.30;99.90
2897;DHT22;1458;49.728;9.228;2023-04-09T03:20:46;2.40;99.90
2897;DHT22;1458;49.728;9.228;2023-04-09T03:23:15;2.40;99.90
2897;DHT22;1458;49.728;9.228;2023-04-09T03:25:47;2.50;99.90
2897;DHT22;1458;49.728;9.228;2023-04-09T03:28:16;2.50;99.90
2897;DHT22;1458;49.728;9.228;2023-04-09T03:30:47;2.60;99.90
2897;DHT22;1458;49.728;9.228;2023-04-09T03:33:15;2.70;99.90
2897;DHT22;1458;49.728;9.228;2023-04-09T03:35:55;2.70;99.90
2897;DHT22;1458;49.728;9.228;2023-04-09T03:38:43;2.70;99.90
2897;DHT22;1458;49.728;9.228;2023-04-09T03:41:24;2.80;99.90
2897;DHT22;1458;49.728;9.228;2023-04-09T03:43:53;2.80;99.90
2897;DHT22;1458;49.728;9.228;2023-04-09T03:46:25;2.90;99.90
2897;DHT22;1458;49.728;9.228;2023-04-09T03:48:53;3.20;99.90
2897;DHT22;1458;49.728;9.228;2023-04-09T03:51:25;3.40;99.90
2897;DHT22;1458;49.728;9.228;2023-04-09T03:53:56;3.50;99.90
2897;DHT22;1458;49.728;9.228;2023-04-09T03:56:25;3.70;99.90
2897;DHT22;1458;49.728;9.228;2023-04-09T03:58:52;3.70;99.90
2897;DHT22;1458;49.728;9.228;2023-04-09T04:01:25;3.70;99.90
2897;DHT22;1458;49.728;9.228;2023-04-09T04:03:57;3.70;99.90
2897;DHT22;1458;49.728;9.228;2023-04-09T04:06:32;3.80;99.90
2897;DHT22;1458;49.728;9.228;2023-04-09T04:09:19;3.70;99.90
2897;DHT22;1458;49.728;9.228;2023-04-09T04:11:56;3.80;99.90
2897;DHT22;1458;49.728;9.228;2023-04-09T04:14:34;3.80;99.90
2897;DHT22;1458;49.728;9.228;2023-04-09T04:17:10;3.80;99.90
2897;DHT22;1458;49.728;9.228;2023-04-09T04:19:38;3.80;99.90
2897;DHT22;1458;49.728;9.228;2023-04-09T04:22:05;3.80;99.90
2897;DHT22;1458;49.728;9.228;2023-04-09T04:24:37;3.80;99.90
2897;DHT22;1458;49.728;9.228;2023-04-09T04:27:06;3.80;99.90
2897;DHT22;1458;49.728;9.228;2023-04-09T04:29:35;3.90;99.90
2897;DHT22;1458;49.728;9.228;2023-04-09T04:32:11;4.10;99.90
2897;DHT22;1458;49.728;9.228;2023-04-09T04:34:39;4.20;99.90
2897;DHT22;1458;49.728;9.228;2023-04-09T04:37:18;4.20;99.90
2897;DHT22;1458;49.728;9.228;2023-04-09T04:39:46;4.30;99.90
2897;DHT22;1458;49.728;9.228;2023-04-09T04:42:17;4.30;99.90
2897;DHT22;1458;49.728;9.228;2023-04-09T04:44:45;4.30;99.90
2897;DHT22;1458;49.728;9.228;2023-04-09T04:47:30;4.30;99.90
2897;DHT22;1458;49.728;9.228;2023-04-09T04:49:58;4.40;99.90
2897;DHT22;1458;49.728;9.228;2023-04-09T04:52:26;4.40;99.90
2897;DHT22;1458;49.728;9.228;2023-04-09T04:54:54;4.50;99.90
2897;DHT22;1458;49.728;9.228;2023-04-09T04:57:25;4.50;99.90
2897;DHT22;1458;49.728;9.228;2023-04-09T04:59:53;4.50;99.90
2897;DHT22;1458;49.728;9.228;2023-04-09T05:02:21;4.40;99.90
2897;DHT22;1458;49.728;9.228;2023-04-09T05:05:14;4.50;99.90
2897;DHT22;1458;49.728;9.228;2023-04-09T05:07:48;4.50;99.90
2897;DHT22;1458;49.728;9.228;2023-04-09T05:10:15;4.40;99.90
2897;DHT22;1458;49.728;9.228;2023-04-09T05:12:46;4.40;99.90
2897;DHT22;1458;49.728;9.228;2023-04-09T05:15:21;4.40;99.90
2897;DHT22;1458;49.728;9.228;2023-04-09T05:17:49;4.60;99.90
2897;DHT22;1458;49.728;9.228;2023-04-09T05:20:17;4.70;99.90
2897;DHT22;1458;49.728;9.228;2023-04-09T05:22:51;4.70;99.90
2897;DHT22;1458;49.728;9.228;2023-04-09T05:25:25;4.70;99.90
2897;DHT22;1458;49.728;9.228;2023-04-09T05:27:54;4.70;99.90
2897;DHT22;1458;49.728;9.228;2023-04-09T05:30:23;4.80;99.90
2897;DHT22;1458;49.728;9.228;2023-04-09T05:32:52;4.80;99.90
2897;DHT22;1458;49.728;9.228;2023-04-09T05:35:20;4.90;99.90
2897;DHT22;1458;49.728;9.228;2023-04-09T05:37:48;4.70;99.90
2897;DHT22;1458;49.728;9.228;2023-04-09T05:40:15;4.80;99.90
2897;DHT22;1458;49.728;9.228;2023-04-09T05:42:43;4.80;99.90
2897;DHT22;1458;49.728;9.228;2023-04-09T05:45:23;4.80;99.90
2897;DHT22;1458;49.728;9.228;2023-04-09T05:47:52;4.80;99.90
2897;DHT22;1458;49.728;9.228;2023-04-09T05:50:21;4.90;99.90
2897;DHT22;1458;49.728;9.228;2023-04-09T05:52:52;5.00;99.90
2897;DHT22;1458;49.728;9.228;2023-04-09T05:55:21;5.00;99.90
2897;DHT22;1458;49.728;9.228;2023-04-09T05:57:57;5.10;99.90
2897;DHT22;1458;49.728;9.228;2023-04-09T06:00:27;5.20;99.90
2897;DHT22;1458;49.728;9.228;2023-04-09T06:02:55;5.20;99.90
2897;DHT22;1458;49.728;9.228;2023-04-09T06:05:22;5.30;99.90
2897;DHT22;1458;49.728;9.228;2023-04-09T06:07:50;5.40;99.90
2897;DHT22;1458;49.728;9.228;2023-04-09T06:10:18;5.50;99.90
2897;DHT22;1458;49.728;9.228;2023-04-09T06:12:47;5.50;99.90
2897;DHT22;1458;49.728;9.228;2023-04-09T06:15:15;5.70;99.90
2897;DHT22;1458;49.728;9.228;2023-04-09T06:17:44;5.90;99.90
2897;DHT22;1458;49.728;9.228;2023-04-09T06:20:12;6.00;99.90
2897;DHT22;1458;49.728;9.228;2023-04-09T06:22:40;6.00;99.90
2897;DHT22;1458;49.728;9.228;2023-04-09T06:25:07;6.10;99.90
2897;DHT22;1458;49.728;9.228;2023-04-09T06:27:35;6.20;99.90
2897;DHT22;1458;49.728;9.228;2023-04-09T06:30:03;6.30;99.90
2897;DHT22;1458;49.728;9.228;2023-04-09T06:32:31;6.10;99.90
2897;DHT22;1458;49.728;9.228;2023-04-09T06:35:00;6.20;99.90
2897;DHT22;1458;49.728;9.228;2023-04-09T06:37:28;6.20;99.90
2897;DHT22;1458;49.728;9.228;2023-04-09T06:39:55;6.40;99.90
2897;DHT22;1458;49.728;9.228;2023-04-09T06:42:23;6.50;99.90
2897;DHT22;1458;49.728;9.228;2023-04-09T06:44:57;6.60;99.90
2897;DHT22;1458;49.728;9.228;2023-04-09T06:47:25;6.60;99.90
2897;DHT22;1458;49.728;9.228;2023-04-09T06:49:52;6.70;99.90
2897;DHT22;1458;49.728;9.228;2023-04-09T06:52:21;6.80;99.90
2897;DHT22;1458;49.728;9.228;2023-04-09T06:54:48;6.90;99.90
2897;DHT22;1458;49.728;9.228;2023-04-09T06:57:16;7.00;99.90
2897;DHT22;1458;49.728;9.228;2023-04-09T06:59:44;7.10;99.90
2897;DHT22;1458;49.728;9.228;2023-04-09T07:02:11;7.20;99.90
2897;DHT22;1458;49.728;9.228;2023-04-09T07:04:39;7.10;99.90
2897;DHT22;1458;49.728;9.228;2023-04-09T07:07:06;7.00;99.90
2897;DHT22;1458;49.728;9.228;2023-04-09T07:09:35;7.20;99.90
2897;DHT22;1458;49.728;9.228;2023-04-09T07:12:02;7.30;99.90
2897;DHT22;1458;49.728;9.228;2023-04-09T07:14:30;7.40;99.90
2897;DHT22;1458;49.728;9.228;2023-04-09T07:16:57;7.60;99.90
2897;DHT22;1458;49.728;9.228;2023-04-09T07:19:25;7.60;99.90
2897;DHT22;1458;49.728;9.228;2023-04-09T07:21:52;7.70;99.90
2897;DHT22;1458;49.728;9.228;2023-04-09T07:24:20;7.50;99.90
2897;DHT22;1458;49.728;9.228;2023-04-09T07:26:48;7.80;99.90
2897;DHT22;1458;49.728;9.228;2023-04-09T07:29:16;7.80;99.90
2897;DHT22;1458;49.728;9.228;2023-04-09T07:31:45;8.10;99.90
2897;DHT22;1458;49.728;9.228;2023-04-09T07:34:15;8.30;99.90
2897;DHT22;1458;49.728;9.228;2023-04-09T07:36:42;8.50;99.90
2897;DHT22;1458;49.728;9.228;2023-04-09T07:39:09;8.40;99.90
2897;DHT22;1458;49.728;9.228;2023-04-09T07:41:37;8.60;99.90
2897;DHT22;1458;49.728;9.228;2023-04-09T07:44:06;9.00;99.90
2897;DHT22;1458;49.728;9.228;2023-04-09T07:46:34;9.10;99.90
2897;DHT22;1458;49.728;9.228;2023-04-09T07:49:01;9.30;99.90
2897;DHT22;1458;49.728;9.228;2023-04-09T07:51:29;9.70;99.90
2897;DHT22;1458;49.728;9.228;2023-04-09T07:53:56;9.90;99.90
2897;DHT22;1458;49.728;9.228;2023-04-09T07:56:27;10.10;98.80
2897;DHT22;1458;49.728;9.228;2023-04-09T07:58:55;10.30;98.60
2897;DHT22;1458;49.728;9.228;2023-04-09T08:01:24;10.40;96.00
2897;DHT22;1458;49.728;9.228;2023-04-09T08:03:51;10.60;96.90
2897;DHT22;1458;49.728;9.228;2023-04-09T08:06:18;10.40;95.40
2897;DHT22;1458;49.728;9.228;2023-04-09T08:08:46;10.10;95.20
2897;DHT22;1458;49.728;9.228;2023-04-09T08:11:13;9.90;95.80
2897;DHT22;1458;49.728;9.228;2023-04-09T08:13:41;10.00;95.50
2897;DHT22;1458;49.728;9.228;2023-04-09T08:16:09;10.00;95.40
2897;DHT22;1458;49.728;9.228;2023-04-09T08:18:40;9.80;94.70
2897;DHT22;1458;49.728;9.228;2023-04-09T08:21:08;9.80;96.00
2897;DHT22;1458;49.728;9.228;2023-04-09T08:23:35;9.90;95.70
2897;DHT22;1458;49.728;9.228;2023-04-09T08:26:03;9.90;95.80
2897;DHT22;1458;49.728;9.228;2023-04-09T08:28:31;10.10;95.60
2897;DHT22;1458;49.728;9.228;2023-04-09T08:30:59;10.40;94.90
2897;DHT22;1458;49.728;9.228;2023-04-09T08:33:26;10.60;95.10
2897;DHT22;1458;49.728;9.228;2023-04-09T08:35:56;10.80;93.90
2897;DHT22;1458;49.728;9.228;2023-04-09T08:38:24;11.00;93.40
2897;DHT22;1458;49.728;9.228;2023-04-09T08:40:52;11.00;91.30
2897;DHT22;1458;49.728;9.228;2023-04-09T08:43:20;11.00;91.70
2897;DHT22;1458;49.728;9.228;2023-04-09T08:45:48;11.10;91.10
2897;DHT22;1458;49.728;9.228;2023-04-09T08:48:20;11.40;90.00
2897;DHT22;1458;49.728;9.228;2023-04-09T08:50:48;11.50;90.80
2897;DHT22;1458;49.728;9.228;2023-04-09T08:53:20;11.60;90.50
2897;DHT22;1458;49.728;9.228;2023-04-09T08:55:48;11.50;87.90
2897;DHT22;1458;49.728;9.228;2023-04-09T08:58:15;11.80;85.60
2897;DHT22;1458;49.728;9.228;2023-04-09T09:00:45;12.00;83.00
2897;DHT22;1458;49.728;9.228;2023-04-09T09:03:13;12.00;83.60
2897;DHT22;1458;49.728;9.228;2023-04-09T09:05:43;12.30;85.00
2897;DHT22;1458;49.728;9.228;2023-04-09T09:08:13;12.60;83.80
2897;DHT22;1458;49.728;9.228;2023-04-09T09:10:50;13.10;82.30
2897;DHT22;1458;49.728;9.228;2023-04-09T09:13:20;13.40;81.40
2897;DHT22;1458;49.728;9.228;2023-04-09T09:15:49;13.30;75.10
2897;DHT22;1458;49.728;9.228;2023-04-09T09:18:20;13.30;75.80
2897;DHT22;1458;49.728;9.228;2023-04-09T09:20:48;13.30;71.40
2897;DHT22;1458;49.728;9.228;2023-04-09T09:23:15;13.40;73.90
2897;DHT22;1458;49.728;9.228;2023-04-09T09:25:44;13.00;72.90
2897;DHT22;1458;49.728;9.228;2023-04-09T09:28:12;12.80;74.70
2897;DHT22;1458;49.728;9.228;2023-04-09T09:30:39;12.80;70.20
2897;DHT22;1458;49.728;9.228;2023-04-09T09:33:09;12.80;70.70
2897;DHT22;1458;49.728;9.228;2023-04-09T09:35:46;12.90;69.30
2897;DHT22;1458;49.728;9.228;2023-04-09T09:38:15;13.20;71.00
2897;DHT22;1458;49.728;9.228;2023-04-09T09:40:44;13.40;68.00
2897;DHT22;1458;49.728;9.228;2023-04-09T09:43:12;13.60;66.90
2897;DHT22;1458;49.728;9.228;2023-04-09T09:45:40;13.30;65.70
2897;DHT22;1458;49.728;9.228;2023-04-09T09:48:10;13.10;66.90
2897;DHT22;1458;49.728;9.228;2023-04-09T09:50:41;12.90;68.90
2897;DHT22;1458;49.728;9.228;2023-04-09T09:53:10;13.10;68.70
2897;DHT22;1458;49.728;9.228;2023-04-09T09:55:39;13.40;65.80
2897;DHT22;1458;49.728;9.228;2023-04-09T09:58:16;13.90;64.50
2897;DHT22;1458;49.728;9.228;2023-04-09T10:00:47;14.00;65.20
2897;DHT22;1458;49.728;9.228;2023-04-09T10:03:20;14.00;64.00
2897;DHT22;1458;49.728;9.228;2023-04-09T10:05:49;14.00;63.50
2897;DHT22;1458;49.728;9.228;2023-04-09T10:08:18;13.60;62.90
2897;DHT22;1458;49.728;9.228;2023-04-09T10:10:47;13.60;63.60
2897;DHT22;1458;49.728;9.228;2023-04-09T10:13:20;13.60;62.90
2897;DHT22;1458;49.728;9.228;2023-04-09T10:15:51;13.60;60.20
2897;DHT22;1458;49.728;9.228;2023-04-09T10:18:19;13.50;62.10
2897;DHT22;1458;49.728;9.228;2023-04-09T10:20:50;13.60;61.00
2897;DHT22;1458;49.728;9.228;2023-04-09T10:23:30;13.80;62.90
2897;DHT22;1458;49.728;9.228;2023-04-09T10:26:05;13.90;62.60
2897;DHT22;1458;49.728;9.228;2023-04-09T10:28:36;14.00;63.00
2897;DHT22;1458;49.728;9.228;2023-04-09T10:31:04;14.20;60.50
2897;DHT22;1458;49.728;9.228;2023-04-09T10:33:33;14.20;57.40
2897;DHT22;1458;49.728;9.228;2023-04-09T10:36:05;14.30;61.00
2897;DHT22;1458;49.728;9.228;2023-04-09T10:38:38;14.40;53.60
2897;DHT22;1458;49.728;9.228;2023-04-09T10:41:11;14.40;52.00
2897;DHT22;1458;49.728;9.228;2023-04-09T10:43:42;14.30;48.30
2897;DHT22;1458;49.728;9.228;2023-04-09T10:46:26;14.20;50.60
2897;DHT22;1458;49.728;9.228;2023-04-09T10:49:10;14.20;52.40
2897;DHT22;1458;49.728;9.228;2023-04-09T10:51:41;14.40;52.50
2897;DHT22;1458;49.728;9.228;2023-04-09T10:54:37;14.20;55.00
2897;DHT22;1458;49.728;9.228;2023-04-09T10:57:17;14.20;52.30
2897;DHT22;1458;49.728;9.228;2023-04-09T10:59:48;14.30;51.50
2897;DHT22;1458;49.728;9.228;2023-04-09T11:05:36;14.20;52.20
2897;DHT22;1458;49.728;9.228;2023-04-09T11:08:06;14.20;49.60
2897;DHT22;1458;49.728;9.228;2023-04-09T11:10:36;14.00;49.10
2897;DHT22;1458;49.728;9.228;2023-04-09T11:13:04;13.90;51.90
2897;DHT22;1458;49.728;9.228;2023-04-09T11:15:34;13.90;49.00
2897;DHT22;1458;49.728;9.228;2023-04-09T11:18:02;13.90;52.00
2897;DHT22;1458;49.728;9.228;2023-04-09T11:20:33;14.20;47.10
2897;DHT22;1458;49.728;9.228;2023-04-09T11:23:01;14.50;54.80
2897;DHT22;1458;49.728;9.228;2023-04-09T11:25:30;14.50;44.00
2897;DHT22;1458;49.728;9.228;2023-04-09T11:27:59;14.50;44.50
2897;DHT22;1458;49.728;9.228;2023-04-09T11:30:28;14.20;42.10
2897;DHT22;1458;49.728;9.228;2023-04-09T11:32:58;14.10;47.70
2897;DHT22;1458;49.728;9.228;2023-04-09T11:35:25;13.90;46.40
2897;DHT22;1458;49.728;9.228;2023-04-09T11:37:52;14.10;44.50
2897;DHT22;1458;49.728;9.228;2023-04-09T11:40:21;14.10;47.40
2897;DHT22;1458;49.728;9.228;2023-04-09T11:42:50;13.90;41.20
2897;DHT22;1458;49.728;9.228;2023-04-09T11:45:20;14.10;42.20
2897;DHT22;1458;49.728;9.228;2023-04-09T11:47:48;14.00;44.50
2897;DHT22;1458;49.728;9.228;2023-04-09T11:50:18;14.00;43.40
2897;DHT22;1458;49.728;9.228;2023-04-09T11:52:46;14.40;52.50
2897;DHT22;1458;49.728;9.228;2023-04-09T11:55:22;14.60;45.70
2897;DHT22;1458;49.728;9.228;2023-04-09T11:57:51;14.50;37.10
2897;DHT22;1458;49.728;9.228;2023-04-09T12:00:21;14.40;38.50
2897;DHT22;1458;49.728;9.228;2023-04-09T12:02:50;14.20;38.20
2897;DHT22;1458;49.728;9.228;2023-04-09T12:05:28;14.20;42.20
2897;DHT22;1458;49.728;9.228;2023-04-09T12:07:58;14.40;42.10
2897;DHT22;1458;49.728;9.228;2023-04-09T12:10:27;14.70;37.60
2897;DHT22;1458;49.728;9.228;2023-04-09T12:13:00;14.70;41.10
2897;DHT22;1458;49.728;9.228;2023-04-09T12:15:31;14.60;34.40
2897;DHT22;1458;49.728;9.228;2023-04-09T12:18:00;14.80;37.70
2897;DHT22;1458;49.728;9.228;2023-04-09T12:20:32;15.20;36.30
2897;DHT22;1458;49.728;9.228;2023-04-09T12:23:02;15.60;35.70
2897;DHT22;1458;49.728;9.228;2023-04-09T12:25:32;15.80;33.50
2897;DHT22;1458;49.728;9.228;2023-04-09T12:28:01;15.80;34.60
2897;DHT22;1458;49.728;9.228;2023-04-09T12:30:29;15.80;34.20
2897;DHT22;1458;49.728;9.228;2023-04-09T12:32:57;15.40;32.30
2897;DHT22;1458;49.728;9.228;2023-04-09T12:35:25;14.90;34.10
2897;DHT22;1458;49.728;9.228;2023-04-09T12:37:54;14.90;31.90
2897;DHT22;1458;49.728;9.228;2023-04-09T12:40:21;14.90;34.30
2897;DHT22;1458;49.728;9.228;2023-04-09T12:42:49;15.00;32.10
2897;DHT22;1458;49.728;9.228;2023-04-09T12:45:18;15.00;34.80
2897;DHT22;1458;49.728;9.228;2023-04-09T12:47:50;15.10;32.30
2897;DHT22;1458;49.728;9.228;2023-04-09T12:50:17;14.90;29.90
2897;DHT22;1458;49.728;9.228;2023-04-09T12:52:45;14.60;34.90
2897;DHT22;1458;49.728;9.228;2023-04-09T12:55:14;14.60;32.30
2897;DHT22;1458;49.728;9.228;2023-04-09T12:57:43;14.70;31.60
2897;DHT22;1458;49.728;9.228;2023-04-09T13:00:12;15.00;32.70
2897;DHT22;1458;49.728;9.228;2023-04-09T13:02:40;15.30;35.30
2897;DHT22;1458;49.728;9.228;2023-04-09T13:05:08;15.70;37.60
2897;DHT22;1458;49.728;9.228;2023-04-09T13:07:36;15.60;30.90
2897;DHT22;1458;49.728;9.228;2023-04-09T13:10:03;15.40;32.50
2897;DHT22;1458;49.728;9.228;2023-04-09T13:12:33;15.00;32.90
2897;DHT22;1458;49.728;9.228;2023-04-09T13:15:01;14.70;33.70
2897;DHT22;1458;49.728;9.228;2023-04-09T13:17:28;14.50;33.20
2897;DHT22;1458;49.728;9.228;2023-04-09T13:19:56;14.40;34.20
2897;DHT22;1458;49.728;9.228;2023-04-09T13:22:23;14.50;35.80
2897;DHT22;1458;49.728;9.228;2023-04-09T13:24:51;14.50;38.60
2897;DHT22;1458;49.728;9.228;2023-04-09T13:27:18;14.60;38.60
2897;DHT22;1458;49.728;9.228;2023-04-09T13:29:48;14.70;32.50
2897;DHT22;1458;49.728;9.228;2023-04-09T13:32:15;14.80;33.70
2897;DHT22;1458;49.728;9.228;2023-04-09T13:34:45;15.00;32.00
2897;DHT22;1458;49.728;9.228;2023-04-09T13:37:13;15.00;33.70
2897;DHT22;1458;49.728;9.228;2023-04-09T13:39:41;15.10;32.10
2897;DHT22;1458;49.728;9.228;2023-04-09T13:42:09;15.40;34.70
2897;DHT22;1458;49.728;9.228;2023-04-09T13:44:37;15.60;35.00
2897;DHT22;1458;49.728;9.228;2023-04-09T13:47:08;15.80;35.60
2897;DHT22;1458;49.728;9.228;2023-04-09T13:49:37;15.90;28.20
2897;DHT22;1458;49.728;9.228;2023-04-09T13:52:05;15.80;28.30
2897;DHT22;1458;49.728;9.228;2023-04-09T13:54:33;15.50;29.80
2897;DHT22;1458;49.728;9.228;2023-04-09T13:57:01;15.10;27.80
2897;DHT22;1458;49.728;9.228;2023-04-09T13:59:28;15.10;29.50
2897;DHT22;1458;49.728;9.228;2023-04-09T14:01:56;15.00;28.60
2897;DHT22;1458;49.728;9.228;2023-04-09T14:04:25;15.10;30.30
2897;DHT22;1458;49.728;9.228;2023-04-09T14:06:52;15.20;31.70
2897;DHT22;1458;49.728;9.228;2023-04-09T14:09:20;15.40;30.10
2897;DHT22;1458;49.728;9.228;2023-04-09T14:11:47;15.80;33.40
2897;DHT22;1458;49.728;9.228;2023-04-09T14:14:15;16.00;28.80
2897;DHT22;1458;49.728;9.228;2023-04-09T14:16:44;15.90;28.30
2897;DHT22;1458;49.728;9.228;2023-04-09T14:19:13;16.00;28.00
2897;DHT22;1458;49.728;9.228;2023-04-09T14:21:41;15.80;30.90
2897;DHT22;1458;49.728;9.228;2023-04-09T14:24:09;15.60;28.70
2897;DHT22;1458;49.728;9.228;2023-04-09T14:26:37;15.60;28.30
2897;DHT22;1458;49.728;9.228;2023-04-09T14:29:04;15.60;30.00
2897;DHT22;1458;49.728;9.228;2023-04-09T14:31:31;15.70;29.60
2897;DHT22;1458;49.728;9.228;2023-04-09T14:33:59;15.70;28.40
2897;DHT22;1458;49.728;9.228;2023-04-09T14:36:26;16.00;29.80
2897;DHT22;1458;49.728;9.228;2023-04-09T14:38:55;16.00;27.50
2897;DHT22;1458;49.728;9.228;2023-04-09T14:41:23;15.90;28.20
2897;DHT22;1458;49.728;9.228;2023-04-09T14:43:50;15.60;27.90
2897;DHT22;1458;49.728;9.228;2023-04-09T14:46:18;15.30;32.40
2897;DHT22;1458;49.728;9.228;2023-04-09T14:48:45;15.00;29.80
2897;DHT22;1458;49.728;9.228;2023-04-09T14:51:12;14.80;30.70
2897;DHT22;1458;49.728;9.228;2023-04-09T14:53:40;14.70;31.60
2897;DHT22;1458;49.728;9.228;2023-04-09T14:56:09;14.90;32.00
2897;DHT22;1458;49.728;9.228;2023-04-09T14:58:37;15.10;31.20
2897;DHT22;1458;49.728;9.228;2023-04-09T15:01:04;15.00;33.90
2897;DHT22;1458;49.728;9.228;2023-04-09T15:03:32;14.80;30.80
2897;DHT22;1458;49.728;9.228;2023-04-09T15:05:59;14.70;30.50
2897;DHT22;1458;49.728;9.228;2023-04-09T15:08:27;14.70;30.70
2897;DHT22;1458;49.728;9.228;2023-04-09T15:10:54;14.80;30.50
2897;DHT22;1458;49.728;9.228;2023-04-09T15:13:23;14.80;29.10
2897;DHT22;1458;49.728;9.228;2023-04-09T15:15:50;14.60;31.20
2897;DHT22;1458;49.728;9.228;2023-04-09T15:18:18;14.40;29.20
2897;DHT22;1458;49.728;9.228;2023-04-09T15:20:45;14.40;32.30
2897;DHT22;1458;49.728;9.228;2023-04-09T15:23:13;14.60;29.90
2897;DHT22;1458;49.728;9.228;2023-04-09T15:25:41;14.60;32.30
2897;DHT22;1458;49.728;9.228;2023-04-09T15:28:08;14.80;31.60
2897;DHT22;1458;49.728;9.228;2023-04-09T15:30:37;15.10;32.50
2897;DHT22;1458;49.728;9.228;2023-04-09T15:33:06;15.20;31.80
2897;DHT22;1458;49.728;9.228;2023-04-09T15:35:34;15.40;31.40
2897;DHT22;1458;49.728;9.228;2023-04-09T15:38:02;15.50;28.00
2897;DHT22;1458;49.728;9.228;2023-04-09T15:40:30;15.30;26.80
2897;DHT22;1458;49.728;9.228;2023-04-09T15:42:57;15.30;26.20
2897;DHT22;1458;49.728;9.228;2023-04-09T15:45:25;15.40;26.30
2897;DHT22;1458;49.728;9.228;2023-04-09T15:47:54;15.40;27.60
2897;DHT22;1458;49.728;9.228;2023-04-09T15:50:21;15.60;26.70
2897;DHT22;1458;49.728;9.228;2023-04-09T15:52:49;15.60;26.30
2897;DHT22;1458;49.728;9.228;2023-04-09T15:55:17;15.60;26.40
2897;DHT22;1458;49.728;9.228;2023-04-09T15:57:45;15.60;28.10
2897;DHT22;1458;49.728;9.228;2023-04-09T16:00:12;15.50;29.10
2897;DHT22;1458;49.728;9.228;2023-04-09T16:02:40;15.30;28.40
2897;DHT22;1458;49.728;9.228;2023-04-09T16:05:09;15.20;27.10
2897;DHT22;1458;49.728;9.228;2023-04-09T16:07:37;15.00;28.90
2897;DHT22;1458;49.728;9.228;2023-04-09T16:10:05;14.70;29.80
2897;DHT22;1458;49.728;9.228;2023-04-09T16:12:33;14.50;29.90
2897;DHT22;1458;49.728;9.228;2023-04-09T16:15:01;14.60;29.10
2897;DHT22;1458;49.728;9.228;2023-04-09T16:17:28;14.70;30.00
2897;DHT22;1458;49.728;9.228;2023-04-09T16:19:56;14.80;30.10
2897;DHT22;1458;49.728;9.228;2023-04-09T16:22:25;14.90;32.80
2897;DHT22;1458;49.728;9.228;2023-04-09T16:24:53;14.90;31.80
2897;DHT22;1458;49.728;9.228;2023-04-09T16:27:21;15.10;31.70